createdAt,value
2022-11-23T00:01:24.628Z,77.66
2022-11-23T00:03:54.125Z,77.76
2022-11-23T00:06:22.054Z,77.66
2022-11-23T00:08:50.014Z,77.72
2022-11-23T00:11:17.508Z,77.82
2022-11-23T00:13:44.589Z,77.79
2022-11-23T00:16:19.909Z,77.69
2022-11-23T00:18:47.313Z,77.70
2022-11-23T00:21:18.314Z,77.66
2022-11-23T00:23:46.020Z,77.68
2022-11-23T00:26:13.868Z,77.75
2022-11-23T00:28:42.208Z,77.72
2022-11-23T00:31:12.101Z,77.60
2022-11-23T00:33:39.692Z,77.75
2022-11-23T00:36:13.206Z,77.80
2022-11-23T00:38:41.468Z,77.89
2022-11-23T00:41:13.768Z,77.69
2022-11-23T00:43:40.785Z,77.83
2022-11-23T00:46:14.054Z,77.88
2022-11-23T00:48:41.451Z,77.83
2022-11-23T00:51:10.475Z,77.77
2022-11-23T00:53:37.898Z,77.76
2022-11-23T00:56:05.585Z,77.73
2022-11-23T00:58:33.340Z,77.71
2022-11-23T01:01:11.446Z,77.73
2022-11-23T01:03:41.053Z,77.74
2022-11-23T01:06:10.609Z,77.79
2022-11-23T01:08:38.242Z,77.78
2022-11-23T01:11:10.968Z,77.80
2022-11-23T01:13:40.261Z,77.63
2022-11-23T01:16:19.469Z,77.61
2022-11-23T01:19:02.215Z,77.49
2022-11-23T01:21:30.595Z,77.49
2022-11-23T01:23:57.771Z,77.57
2022-11-23T01:26:24.765Z,77.71
2022-11-23T01:28:52.107Z,77.66
2022-11-23T01:31:21.406Z,77.75
2022-11-23T01:33:52.346Z,77.58
2022-11-23T01:36:21.710Z,77.47
2022-11-23T01:38:49.178Z,77.63
2022-11-23T01:41:22.307Z,77.77
2022-11-23T01:43:50.591Z,77.60
2022-11-23T01:46:18.215Z,77.70
2022-11-23T01:48:53.359Z,77.56
2022-11-23T01:51:27.668Z,77.62
2022-11-23T01:53:59.291Z,77.72
2022-11-23T01:56:32.430Z,77.70
2022-11-23T01:59:02.177Z,77.62
2022-11-23T02:01:29.298Z,77.54
2022-11-23T02:04:00.588Z,77.59
2022-11-23T02:06:28.251Z,77.75
2022-11-23T02:08:56.183Z,77.89
2022-11-23T02:11:23.006Z,77.89
2022-11-23T02:13:51.356Z,77.78
2022-11-23T02:16:19.319Z,77.72
2022-11-23T02:18:49.706Z,77.87
2022-11-23T02:21:16.676Z,77.85
2022-11-23T02:24:04.918Z,77.90
2022-11-23T02:26:35.646Z,77.94
2022-11-23T02:29:10.820Z,77.68
2022-11-23T02:31:37.979Z,77.73
2022-11-23T02:34:04.807Z,77.61
2022-11-23T02:36:39.085Z,77.78
2022-11-23T02:39:15.172Z,77.76
2022-11-23T02:41:45.594Z,77.82
2022-11-23T02:44:36.069Z,77.79
2022-11-23T02:47:03.095Z,77.93
2022-11-23T02:49:30.265Z,77.87
2022-11-23T02:51:57.316Z,77.82
2022-11-23T02:54:24.139Z,77.87
2022-11-23T02:56:51.045Z,77.82
2022-11-23T02:59:17.822Z,77.82
2022-11-23T03:01:44.597Z,77.88
2022-11-23T03:04:11.451Z,77.85
2022-11-23T03:06:38.236Z,77.93
2022-11-23T03:09:05.930Z,78.05
2022-11-23T03:11:33.712Z,78.05
2022-11-23T03:14:00.622Z,78.06
2022-11-23T03:16:27.430Z,78.04
2022-11-23T03:18:54.466Z,78.02
2022-11-23T03:21:21.272Z,78.22
2022-11-23T03:23:48.255Z,78.21
2022-11-23T03:26:15.092Z,78.20
2022-11-23T03:28:41.849Z,78.25
2022-11-23T03:31:09.088Z,78.31
2022-11-23T03:33:35.943Z,78.12
2022-11-23T03:36:02.941Z,78.01
2022-11-23T03:38:29.885Z,78.18
2022-11-23T03:40:56.722Z,78.30
2022-11-23T03:43:23.695Z,78.17
2022-11-23T03:45:50.712Z,78.27
2022-11-23T03:48:17.561Z,78.19
2022-11-23T03:50:45.080Z,78.19
2022-11-23T03:53:12.901Z,78.04
2022-11-23T03:55:39.762Z,78.23
2022-11-23T03:58:06.700Z,78.31
2022-11-23T04:00:34.530Z,78.19
2022-11-23T04:03:01.317Z,78.29
2022-11-23T04:05:28.127Z,78.23
2022-11-23T04:07:54.901Z,78.19
2022-11-23T04:10:22.136Z,78.26
2022-11-23T04:12:53.174Z,78.27
2022-11-23T04:15:20.734Z,78.30
2022-11-23T04:17:47.706Z,78.16
2022-11-23T04:20:14.620Z,78.17
2022-11-23T04:22:41.462Z,78.15
2022-11-23T04:25:08.720Z,78.23
2022-11-23T04:27:35.637Z,78.33
2022-11-23T04:30:02.481Z,78.26
2022-11-23T04:32:29.295Z,78.36
2022-11-23T04:34:56.083Z,78.40
2022-11-23T04:37:22.897Z,78.51
2022-11-23T04:39:49.694Z,78.50
2022-11-23T04:42:16.502Z,78.38
2022-11-23T04:44:43.366Z,78.34
2022-11-23T04:47:11.577Z,78.32
2022-11-23T04:49:38.383Z,78.40
2022-11-23T04:52:05.584Z,78.38
2022-11-23T04:54:32.460Z,78.41
2022-11-23T04:56:59.842Z,78.40
2022-11-23T04:59:27.252Z,78.39
2022-11-23T05:01:54.093Z,78.35
2022-11-23T05:04:20.944Z,78.52
2022-11-23T05:06:47.708Z,78.41
2022-11-23T05:09:14.632Z,78.34
2022-11-23T05:11:41.622Z,78.41
2022-11-23T05:14:08.419Z,78.35
2022-11-23T05:16:35.528Z,78.26
2022-11-23T05:19:02.350Z,78.21
2022-11-23T05:21:29.144Z,78.34
2022-11-23T05:23:55.991Z,78.34
2022-11-23T05:26:22.864Z,78.13
2022-11-23T05:28:49.657Z,78.12
2022-11-23T05:31:16.653Z,78.12
2022-11-23T05:33:43.591Z,78.19
2022-11-23T05:36:14.085Z,78.13
2022-11-23T05:38:41.893Z,78.10
2022-11-23T05:41:08.772Z,77.96
2022-11-23T05:43:35.620Z,78.02
2022-11-23T05:46:03.044Z,78.09
2022-11-23T05:48:29.827Z,78.11
2022-11-23T05:51:02.188Z,78.13
2022-11-23T05:53:31.873Z,78.13
2022-11-23T05:56:01.105Z,78.03
2022-11-23T05:58:28.882Z,78.03
2022-11-23T06:01:02.075Z,78.06
2022-11-23T06:03:28.951Z,78.12
2022-11-23T06:05:55.808Z,78.14
2022-11-23T06:08:22.624Z,78.16
2022-11-23T06:10:49.491Z,78.10
2022-11-23T06:13:16.289Z,78.10
2022-11-23T06:15:43.127Z,78.21
2022-11-23T06:18:10.181Z,78.23
2022-11-23T06:20:36.993Z,78.21
2022-11-23T06:23:04.253Z,78.22
2022-11-23T06:25:31.138Z,78.19
2022-11-23T06:28:00.171Z,78.15
2022-11-23T06:30:29.261Z,78.14
2022-11-23T06:32:56.694Z,78.23
2022-11-23T06:35:24.351Z,78.30
2022-11-23T06:37:53.731Z,78.19
2022-11-23T06:40:21.244Z,78.23
2022-11-23T06:42:48.534Z,78.31
2022-11-23T06:45:15.434Z,78.31
2022-11-23T06:47:42.286Z,78.18
2022-11-23T06:50:09.617Z,78.06
2022-11-23T06:52:36.414Z,78.02
2022-11-23T06:55:03.395Z,78.06
2022-11-23T06:57:30.272Z,78.08
2022-11-23T06:59:57.090Z,78.03
2022-11-23T07:02:23.909Z,78.07
2022-11-23T07:04:52.478Z,78.18
2022-11-23T07:07:19.339Z,78.10
2022-11-23T07:09:46.166Z,78.10
2022-11-23T07:12:12.948Z,78.16
2022-11-23T07:14:39.815Z,78.23
2022-11-23T07:17:06.592Z,78.19
2022-11-23T07:19:33.688Z,78.20
2022-11-23T07:22:00.640Z,78.16
2022-11-23T07:24:27.549Z,78.16
2022-11-23T07:26:54.349Z,78.15
2022-11-23T07:29:21.135Z,78.08
2022-11-23T07:31:48.117Z,77.95
2022-11-23T07:34:14.987Z,78.04
2022-11-23T07:36:41.837Z,78.03
2022-11-23T07:39:08.813Z,77.97
2022-11-23T07:41:35.629Z,77.89
2022-11-23T07:44:02.453Z,77.84
2022-11-23T07:46:29.313Z,77.87
2022-11-23T07:49:01.379Z,77.94
2022-11-23T07:51:29.445Z,78.05
2022-11-23T07:53:56.330Z,77.99
2022-11-23T07:56:23.535Z,77.96
2022-11-23T07:58:50.625Z,77.95
2022-11-23T08:01:18.537Z,77.89
2022-11-23T08:03:46.409Z,77.95
2022-11-23T08:06:14.549Z,77.89
2022-11-23T08:08:42.487Z,77.97
2022-11-23T08:11:10.104Z,77.94
2022-11-23T08:13:39.923Z,77.94
2022-11-23T08:16:06.971Z,77.95
2022-11-23T08:18:33.718Z,77.98
2022-11-23T08:21:02.012Z,77.97
2022-11-23T08:23:29.490Z,77.79
2022-11-23T08:25:56.569Z,77.84
2022-11-23T08:28:23.701Z,77.85
2022-11-23T08:30:50.675Z,77.86
2022-11-23T08:33:17.473Z,77.86
2022-11-23T08:35:44.464Z,77.78
2022-11-23T08:38:11.540Z,77.76
2022-11-23T08:40:38.688Z,77.70
2022-11-23T08:43:06.175Z,77.78
2022-11-23T08:45:33.006Z,77.72
2022-11-23T08:48:01.613Z,77.70
2022-11-23T08:50:29.472Z,77.70
2022-11-23T08:52:57.657Z,77.61
2022-11-23T08:55:27.954Z,77.62
2022-11-23T08:57:59.330Z,77.55
2022-11-23T09:00:27.476Z,77.49
2022-11-23T09:02:54.434Z,77.74
2022-11-23T09:05:21.373Z,77.84
2022-11-23T09:07:48.298Z,77.83
2022-11-23T09:10:18.688Z,77.87
2022-11-23T09:12:46.916Z,77.85
2022-11-23T09:15:14.155Z,77.87
2022-11-23T09:17:40.983Z,77.85
2022-11-23T09:20:08.585Z,77.83
2022-11-23T09:22:35.364Z,77.85
2022-11-23T09:25:02.861Z,77.81
2022-11-23T09:27:29.863Z,77.83
2022-11-23T09:29:56.669Z,77.87
2022-11-23T09:32:23.474Z,77.88
2022-11-23T09:34:50.297Z,77.86
2022-11-23T09:37:17.113Z,77.93
2022-11-23T09:39:43.960Z,77.87
2022-11-23T09:42:46.281Z,77.78
2022-11-23T09:45:21.821Z,77.80
2022-11-23T09:48:06.370Z,77.80
2022-11-23T09:51:02.320Z,77.77
2022-11-23T09:53:49.342Z,77.74
2022-11-23T09:56:32.759Z,77.75
2022-11-23T09:59:04.168Z,77.79
2022-11-23T10:01:31.378Z,77.85
2022-11-23T10:03:58.978Z,77.84
2022-11-23T10:06:29.179Z,77.82
2022-11-23T10:09:19.511Z,77.87
2022-11-23T10:12:01.687Z,77.82
2022-11-23T10:14:37.609Z,77.86
2022-11-23T10:17:24.620Z,77.90
2022-11-23T10:20:16.310Z,77.98
2022-11-23T10:22:55.266Z,77.92
2022-11-23T10:25:23.637Z,78.01
2022-11-23T10:27:57.195Z,78.07
2022-11-23T10:30:24.075Z,78.10
2022-11-23T10:33:02.493Z,78.06
2022-11-23T10:35:32.745Z,78.10
2022-11-23T10:38:25.330Z,78.30
2022-11-23T10:41:13.789Z,78.45
2022-11-23T10:43:56.506Z,78.47
2022-11-23T10:46:38.472Z,78.50
2022-11-23T10:49:29.317Z,78.54
2022-11-23T10:52:05.798Z,78.58
2022-11-23T10:54:40.234Z,78.66
2022-11-23T10:57:44.371Z,78.72
2022-11-23T11:00:11.501Z,78.71
2022-11-23T11:02:40.801Z,78.77
2022-11-23T11:06:07.078Z,78.80
2022-11-23T11:08:21.627Z,78.79
2022-11-23T11:11:21.530Z,78.81
2022-11-23T11:13:49.336Z,78.85
2022-11-23T11:16:22.538Z,78.89
2022-11-23T11:18:49.449Z,78.88
2022-11-23T11:21:21.467Z,78.86
2022-11-23T11:24:16.054Z,78.84
2022-11-23T11:26:52.194Z,78.91
2022-11-23T11:29:39.083Z,78.87
2022-11-23T11:32:19.402Z,78.90
2022-11-23T11:35:03.072Z,78.91
2022-11-23T11:37:36.831Z,78.94
2022-11-23T11:40:29.290Z,78.94
2022-11-23T11:43:05.766Z,78.95
2022-11-23T11:45:37.584Z,78.96
2022-11-23T11:48:14.256Z,78.92
2022-11-23T11:50:57.020Z,78.91
2022-11-23T11:53:30.824Z,78.89
2022-11-23T11:56:11.981Z,79.04
2022-11-23T11:58:46.123Z,78.94
2022-11-23T12:01:40.611Z,78.96
2022-11-23T12:04:15.159Z,78.93
2022-11-23T12:07:04.792Z,78.86
2022-11-23T12:09:38.430Z,79.08
2022-11-23T12:12:14.431Z,79.09
2022-11-23T12:14:41.298Z,79.09
2022-11-23T12:17:31.973Z,79.07
2022-11-23T12:20:04.085Z,79.09
2022-11-23T12:22:36.539Z,79.09
2022-11-23T12:25:15.540Z,79.07
2022-11-23T12:28:13.761Z,79.16
2022-11-23T12:30:51.929Z,79.19
2022-11-23T12:33:33.957Z,79.22
2022-11-23T12:36:27.675Z,79.23
2022-11-23T12:39:12.768Z,79.21
2022-11-23T12:41:48.956Z,79.19
2022-11-23T12:44:31.381Z,79.14
2022-11-23T12:47:15.884Z,79.17
2022-11-23T12:49:53.827Z,79.14
2022-11-23T12:53:05.784Z,79.13
2022-11-23T12:55:50.750Z,79.08
2022-11-23T12:58:27.697Z,79.07
2022-11-23T13:00:54.498Z,79.09
2022-11-23T13:03:55.378Z,79.06
2022-11-23T13:07:26.704Z,79.07
2022-11-23T13:10:13.232Z,79.09
2022-11-23T13:12:46.022Z,79.06
2022-11-23T13:15:15.612Z,79.06
2022-11-23T13:17:48.456Z,79.09
2022-11-23T13:20:34.000Z,79.05
2022-11-23T13:23:01.581Z,79.00
2022-11-23T13:25:29.743Z,78.97
2022-11-23T13:28:21.331Z,78.90
2022-11-23T13:31:17.184Z,78.83
2022-11-23T13:33:49.347Z,78.85
2022-11-23T13:37:11.077Z,78.85
2022-11-23T13:40:04.805Z,78.83
2022-11-23T13:42:33.863Z,78.99
2022-11-23T13:45:37.484Z,79.08
2022-11-23T13:48:41.278Z,79.05
2022-11-23T13:51:04.628Z,79.12
2022-11-23T13:53:38.347Z,79.15
2022-11-23T13:56:31.010Z,79.21
2022-11-23T13:59:18.307Z,79.31
2022-11-23T14:02:06.902Z,79.36
2022-11-23T14:04:37.006Z,79.38
2022-11-23T14:07:07.031Z,79.46
2022-11-23T14:09:46.279Z,79.49
2022-11-23T14:12:19.058Z,79.43
2022-11-23T14:15:06.458Z,79.38
2022-11-23T14:17:55.143Z,79.39
2022-11-23T14:20:54.592Z,79.36
2022-11-23T14:23:40.597Z,79.36
2022-11-23T14:26:32.232Z,79.32
2022-11-23T14:29:20.564Z,79.32
2022-11-23T14:32:09.287Z,79.37
2022-11-23T14:35:03.859Z,79.31
2022-11-23T14:37:52.072Z,79.24
2022-11-23T14:40:48.485Z,79.19
2022-11-23T14:43:19.504Z,79.20
2022-11-23T14:45:47.654Z,79.16
2022-11-23T14:48:33.087Z,79.17
2022-11-23T14:51:03.572Z,79.22
2022-11-23T14:53:34.942Z,79.27
2022-11-23T14:56:02.374Z,79.24
2022-11-23T14:58:32.937Z,79.21
2022-11-23T15:01:03.555Z,79.16
2022-11-23T15:03:50.083Z,79.16
2022-11-23T15:06:21.490Z,79.14
2022-11-23T15:08:51.180Z,79.15
2022-11-23T15:11:23.139Z,79.11
2022-11-23T15:13:55.570Z,79.16
2022-11-23T15:16:22.537Z,79.08
2022-11-23T15:18:49.697Z,79.08
2022-11-23T15:21:26.634Z,79.01
2022-11-23T15:23:57.398Z,78.97
2022-11-23T15:26:48.509Z,78.94
2022-11-23T15:29:35.220Z,78.94
2022-11-23T15:34:52.890Z,78.86
2022-11-23T15:37:19.796Z,78.91
2022-11-23T15:39:47.995Z,78.94
2022-11-23T15:42:20.138Z,78.94
2022-11-23T15:44:51.196Z,78.90
2022-11-23T15:47:31.082Z,78.94
2022-11-23T15:50:03.082Z,78.91
2022-11-23T15:52:35.741Z,78.87
2022-11-23T15:55:10.041Z,78.87
2022-11-23T15:57:39.663Z,78.86
2022-11-23T16:00:09.535Z,78.87
2022-11-23T16:02:37.087Z,78.87
2022-11-23T16:05:22.249Z,78.91
2022-11-23T16:08:00.585Z,78.86
2022-11-23T16:10:37.613Z,78.76
2022-11-23T16:13:06.144Z,78.78
2022-11-23T16:15:38.756Z,78.73
2022-11-23T16:18:18.487Z,78.72
2022-11-23T16:20:48.523Z,78.80
2022-11-23T16:23:21.143Z,78.81
2022-11-23T16:25:58.048Z,78.80
2022-11-23T16:28:33.451Z,78.72
2022-11-23T16:31:01.362Z,78.73
2022-11-23T16:33:28.650Z,78.75
2022-11-23T16:35:55.493Z,78.69
2022-11-23T16:38:24.156Z,78.71
2022-11-23T16:40:51.542Z,78.73
2022-11-23T16:43:18.725Z,78.69
2022-11-23T16:45:49.162Z,78.67
2022-11-23T16:48:25.836Z,78.60
2022-11-23T16:50:57.515Z,78.58
2022-11-23T16:53:30.214Z,78.68
2022-11-23T16:55:58.664Z,78.69
2022-11-23T16:58:30.083Z,78.75
2022-11-23T17:00:57.392Z,78.76
2022-11-23T17:03:26.011Z,78.81
2022-11-23T17:05:54.139Z,78.84
2022-11-23T17:08:23.820Z,78.80
2022-11-23T17:10:52.556Z,78.81
2022-11-23T17:13:25.513Z,78.77
2022-11-23T17:15:53.401Z,78.71
2022-11-23T17:18:22.629Z,78.73
2022-11-23T17:20:50.105Z,78.69
2022-11-23T17:23:17.334Z,78.69
2022-11-23T17:25:44.285Z,78.63
2022-11-23T17:28:23.071Z,78.53
2022-11-23T17:30:50.532Z,78.48
2022-11-23T17:33:17.860Z,78.44
2022-11-23T17:35:45.557Z,78.49
2022-11-23T17:38:16.060Z,78.48
2022-11-23T17:40:43.190Z,78.46
2022-11-23T17:43:16.565Z,78.50
2022-11-23T17:45:45.356Z,78.49
2022-11-23T17:48:14.886Z,78.56
2022-11-23T17:50:42.261Z,78.59
2022-11-23T17:53:11.006Z,78.58
2022-11-23T17:55:38.696Z,78.53
2022-11-23T17:58:07.160Z,78.53
2022-11-23T18:00:35.863Z,78.57
2022-11-23T18:03:03.245Z,78.55
2022-11-23T18:05:30.797Z,78.50
2022-11-23T18:07:58.094Z,78.54
2022-11-23T18:10:26.958Z,78.49
2022-11-23T18:12:54.402Z,78.47
2022-11-23T18:15:21.763Z,78.33
2022-11-23T18:17:49.066Z,78.29
2022-11-23T18:20:16.479Z,78.24
2022-11-23T18:22:45.314Z,78.24
2022-11-23T18:25:12.547Z,78.22
2022-11-23T18:27:39.508Z,78.23
2022-11-23T18:30:07.310Z,78.24
2022-11-23T18:32:34.663Z,78.20
2022-11-23T18:35:02.028Z,78.17
2022-11-23T18:37:30.413Z,78.21
2022-11-23T18:39:57.694Z,78.26
2022-11-23T18:42:24.879Z,78.31
2022-11-23T18:44:51.777Z,78.21
2022-11-23T18:47:18.987Z,78.10
2022-11-23T18:49:46.257Z,78.06
2022-11-23T18:52:14.342Z,78.02
2022-11-23T18:54:41.638Z,78.03
2022-11-23T18:57:08.995Z,78.05
2022-11-23T19:02:23.629Z,78.08
2022-11-23T19:04:50.976Z,78.05
2022-11-23T19:07:25.158Z,78.08
2022-11-23T19:09:54.307Z,78.09
2022-11-23T19:12:21.663Z,78.06
2022-11-23T19:14:50.210Z,78.00
2022-11-23T19:17:17.954Z,77.99
2022-11-23T19:19:45.363Z,77.97
2022-11-23T19:22:12.770Z,77.96
2022-11-23T19:24:40.289Z,77.91
2022-11-23T19:27:07.629Z,77.90
2022-11-23T19:29:35.130Z,77.95
2022-11-23T19:32:04.313Z,78.00
2022-11-23T19:34:32.203Z,77.99
2022-11-23T19:37:00.100Z,78.01
2022-11-23T19:39:27.123Z,78.05
2022-11-23T19:41:54.474Z,78.05
2022-11-23T19:44:21.786Z,78.06
2022-11-23T19:46:49.249Z,78.07
2022-11-23T19:49:16.917Z,78.04
2022-11-23T19:51:44.021Z,78.00
2022-11-23T19:54:11.342Z,77.97
2022-11-23T19:56:38.645Z,77.96
2022-11-23T19:59:05.608Z,78.02
2022-11-23T20:01:33.055Z,78.11
2022-11-23T20:04:09.311Z,78.11
2022-11-23T20:06:42.203Z,78.13
2022-11-23T20:09:24.089Z,78.15
2022-11-23T20:11:51.799Z,78.18
2022-11-23T20:14:19.603Z,78.19
2022-11-23T20:16:48.177Z,78.16
2022-11-23T20:19:15.604Z,78.11
2022-11-23T20:21:43.081Z,78.12
2022-11-23T20:24:13.403Z,78.07
2022-11-23T20:26:41.951Z,78.04
2022-11-23T20:29:11.486Z,78.06
2022-11-23T20:31:38.670Z,78.06
2022-11-23T20:34:08.883Z,78.05
2022-11-23T20:36:38.578Z,78.11
2022-11-23T20:39:08.992Z,78.13
2022-11-23T20:41:38.066Z,78.17
2022-11-23T20:44:13.849Z,78.14
2022-11-23T20:49:31.831Z,78.10
2022-11-23T20:52:00.990Z,78.11
2022-11-23T20:54:28.712Z,78.13
2022-11-23T20:56:58.618Z,78.14
2022-11-23T20:59:26.726Z,78.20
2022-11-23T21:01:53.902Z,78.31
2022-11-23T21:04:21.190Z,78.33
2022-11-23T21:06:48.108Z,78.38
2022-11-23T21:09:16.616Z,78.39
2022-11-23T21:12:01.709Z,78.39
2022-11-23T21:14:30.943Z,78.42
2022-11-23T21:16:59.511Z,78.43
2022-11-23T21:19:28.984Z,78.47
2022-11-23T21:21:57.190Z,78.37
2022-11-23T21:24:24.573Z,78.36
2022-11-23T21:26:51.466Z,78.36
2022-11-23T21:29:18.815Z,78.30
2022-11-23T21:31:47.665Z,78.25
2022-11-23T21:34:25.977Z,78.25
2022-11-23T21:36:54.338Z,78.22
2022-11-23T21:39:22.168Z,78.25
2022-11-23T21:41:50.559Z,78.21
2022-11-23T21:44:18.263Z,78.23
2022-11-23T21:46:45.426Z,78.31
2022-11-23T21:49:13.021Z,78.35
2022-11-23T21:51:42.606Z,78.26
2022-11-23T21:54:16.346Z,78.22
2022-11-23T21:56:45.350Z,78.15
2022-11-23T21:59:12.803Z,78.10
2022-11-23T22:01:40.028Z,78.10
2022-11-23T22:04:12.466Z,78.10
2022-11-23T22:06:40.587Z,78.12
2022-11-23T22:09:09.655Z,78.11
2022-11-23T22:11:39.615Z,78.08
2022-11-23T22:14:12.202Z,78.04
2022-11-23T22:16:44.732Z,78.03
2022-11-23T22:19:13.655Z,78.02
2022-11-23T22:21:42.471Z,78.01
2022-11-23T22:24:13.275Z,77.98
2022-11-23T22:26:40.120Z,77.92
2022-11-23T22:29:07.381Z,77.96
2022-11-23T22:31:35.308Z,77.93
2022-11-23T22:34:05.753Z,77.91
2022-11-23T22:36:33.340Z,77.89
2022-11-23T22:39:03.167Z,77.96
2022-11-23T22:41:34.574Z,77.96
2022-11-23T22:44:01.422Z,77.99
2022-11-23T22:46:28.378Z,78.01
2022-11-23T22:48:59.405Z,77.90
2022-11-23T22:51:28.198Z,77.86
2022-11-23T22:53:56.955Z,77.94
2022-11-23T22:56:24.785Z,77.93
2022-11-23T22:58:51.815Z,77.88
2022-11-23T23:01:21.669Z,77.83
2022-11-23T23:03:52.585Z,77.80
2022-11-23T23:06:22.084Z,77.83
2022-11-23T23:08:53.856Z,77.87
2022-11-23T23:11:21.367Z,77.87
2022-11-23T23:13:48.632Z,77.90
2022-11-23T23:16:15.698Z,77.82
2022-11-23T23:18:43.399Z,77.87
2022-11-23T23:21:18.751Z,77.88
2022-11-23T23:23:48.027Z,77.84
2022-11-23T23:26:17.808Z,77.80
2022-11-23T23:28:45.460Z,77.81
2022-11-23T23:31:14.932Z,77.77
2022-11-23T23:33:42.914Z,77.77
2022-11-23T23:36:12.383Z,77.75
2022-11-23T23:38:39.770Z,77.66
2022-11-23T23:41:07.905Z,77.63
2022-11-23T23:43:34.983Z,77.60
2022-11-23T23:46:05.349Z,77.58
2022-11-23T23:48:37.386Z,77.54
2022-11-23T23:51:08.573Z,77.57
2022-11-23T23:53:36.573Z,77.61
2022-11-23T23:56:12.283Z,77.60
2022-11-23T23:58:39.236Z,77.56
